Friend, NE (68359)

4:31 AM CDT on August 28, 2015 (GMT -0500)
3 Miles East of Friend | | Change Station
CLOSE
Current Station
Personal Weather Station
Location: Friend, NE
Elevation: 1531 ft
Nearby Weather Stations

Elev 1531 ft 40.66 °N, 97.22 °W | Updated 2 seconds ago

Overcast
Overcast
74.0 °F
Feels Like 75 °F
N
13.5
Wind Variable Wind from SSW
Gusts 19.6 mph

Today
High -- | Low -- °F
--% Chance of Precip.
Yesterday
High -- | Low -- °F
Precip. -- in
6:52 AM 8:07 PM
Waxing Gibbous, 97% visible
Pressure 29.83 in
Visibility 10.0 miles
Clouds Overcast 1800 ft
Heat Index 75 °F
Dew Point 66 °F
Humidity 76%
Rainfall 0.00 in
Snow Depth Not available.
UV 0.0 out of 12
Pollen 8.70 out of 12
Air Quality Not available.
Flu Activity Not available.
METAR KJYR 280915Z AUTO 21005KT 10SM OVC018 22/20 A2983 RMK AO2
Pressure 29.83 in
Visibility 10.0 miles
Clouds Overcast 1800 ft
Heat Index 75 °F
Dew Point 66 °F
Humidity 76%
Rainfall 0.00 in
Snow Depth Not available.
UV 0.0 out of 12
Pollen 8.70 out of 12
Air Quality Not available.
Flu Activity Not available.
METAR KJYR 280915Z AUTO 21005KT 10SM OVC018 22/20 A2983 RMK AO2

10-Day Weather Forecast

×

Almanac

Astronomy

Aug. 28, 2015 Rise Set
Actual Time
Civil Twilight
Nautical Twilight
Astronomical Twilight
Moon
Length of Visible Light
Length of Day
Tomorrow will be .
, % of the Moon is Illuminated

Today's Extremes

State Highs State Lows

Community

WunderPhotos

Upload Photos

1,850,352 photos uploaded!

WunderBlogs® & News

Nearby

Air Quality

  Air Quality AQ Index Pollutant
Not available.

Snow Depth

Station Depth Elevation

Earthquake Activity

City Distance Mag. Time & Date
Minimum magnitude displayed is 2.5.

Coastal Water Temperatures

Place Temperature

Stations

Nearby Weather Stations

Station Location Temp. Windchill Dew Point Humidity Wind Precip. Elev Updated Type